Mauna Loa — WDC2819 — position and weather

sailwx.info

Track history (hours):
 
Tides and Currents Weather Stations Pressure Air Temp Water Temp Dewpoint Dewpoint Depression Visibility Wind Speed Wind Dir Waves Ship Positions

Mauna Loa

Owner: Salmon Bay Barge Line, Inc., Seattle, WA. More information available from US FCC via Universal Licensing System and Coast Guard Vessel Documentation Center.

Last reported at 2018-May-11 00:50 UTC. Time now 2018-Jun-19 10:22 UTC.
Position N 47°34' W 122°22'.
Warning: this ship's position is 39 days out of date.

Length 37 m; draft 4.6 m.

Type: Tug. MMSI: 366998090.

Date/timePositionNaut miles runAvg speedWind from/ knotsBaromVisibWave heightAir tempDewpointWater temp
2018-May-11 00:50N 47°34' W 122°22'0 0.3
2018-May-11 00:30N 47°35' W 122°22'3 7.0
2018-May-11 00:00N 47°37' W 122°25'2 3.3
2018-May-10 23:29N 47°38' W 122°27'1 2.6
2018-May-10 22:59N 47°39' W 122°28'2 2.4
2018-May-10 22:17N 47°41' W 122°28'1 2.3
2018-May-10 22:00N 47°42' W 122°28'0 0.4
2018-May-10 21:27N 47°42' W 122°28'0 0.2
2018-May-10 21:00N 47°42' W 122°28'0 0.1
2018-May-10 20:28N 47°42' W 122°28'0 0.6
2018-May-10 19:52N 47°42' W 122°28'2 5.1
2018-May-10 19:30N 47°44' W 122°28'3 6.9
2018-May-10 19:00N 47°47' W 122°28'3 6.9
2018-May-10 18:30N 47°51' W 122°29'3 6.8
2018-May-10 18:00N 47°54' W 122°30'26 5.4
2018-May-10 13:05N 48°17' W 122°48'2 7.2
2018-May-10 12:52N 48°19' W 122°47'3 7.1
2018-May-10 12:30N 48°21' W 122°46'5 7.4
2018-May-10 11:53N 48°26' W 122°45'3 7.7
2018-May-10 11:27N 48°29' W 122°45'3 7.2
2018-May-10 11:00N 48°32' W 122°45'3 6.7
2018-May-10 10:30N 48°36' W 122°46'3 6.2
2018-May-10 10:00N 48°39' W 122°44'3 5.8
2018-May-10 09:28N 48°42' W 122°45'4 6.0
2018-May-10 08:51N 48°45' W 122°48'2 6.1
2018-May-10 08:29N 48°46' W 122°51'4 6.5
2018-May-10 07:56N 48°48' W 122°55'4 5.7
2018-May-10 07:09N 48°50' W 123°01'4 6.2
2018-May-10 06:31N 48°53' W 123°06'2 6.6
2018-May-10 06:16N 48°54' W 123°07'2 6.7
2018-May-10 05:59N 48°55' W 123°10'4 6.7
2018-May-10 05:24N 48°58' W 123°14'3 6.8
2018-May-10 04:59N 48°60' W 123°17'4 6.5
2018-May-10 04:25N 49°03' W 123°21'2 5.6
2018-May-10 04:00N 49°05' W 123°20'4 7.6
2018-May-10 03:28N 49°07' W 123°15'3 7.6
2018-May-10 03:00N 49°07' W 123°10'4 8.2
2018-May-10 02:30N 49°08' W 123°04'3 5.5
2018-May-10 02:00N 49°09' W 123°00'0 0.0
2018-May-10 01:30N 49°09' W 123°00'0 0.0
2018-May-10 01:00N 49°09' W 123°00'0 0.0
2018-May-10 00:28N 49°09' W 123°00'0 0.0
2018-May-09 23:58N 49°09' W 123°00'0 0.0
2018-May-09 23:28N 49°09' W 123°00'0 0.0
2018-May-09 22:59N 49°09' W 123°00'0 0.0
2018-May-09 22:29N 49°09' W 123°00'0 0.0
2018-May-09 21:59N 49°09' W 123°00'0 0.0
2018-May-09 21:30N 49°09' W 123°00'0 0.0
2018-May-09 21:00N 49°09' W 123°00'0 0.0
2018-May-09 20:30N 49°09' W 123°00'0 0.0
2018-May-09 19:58N 49°09' W 123°00'0 0.0
2018-May-09 19:28N 49°09' W 123°00'0 0.0
2018-May-09 18:58N 49°09' W 123°00'0 0.0
2018-May-09 18:29N 49°09' W 123°00'0 0.0
2018-May-09 17:59N 49°09' W 123°00'0 0.0
2018-May-09 17:29N 49°09' W 123°00'0 0.0
2018-May-09 17:00N 49°09' W 123°00'0 0.0
2018-May-09 16:30N 49°09' W 123°00'0 0.0
2018-May-09 16:00N 49°09' W 123°00'0 0.0
2018-May-09 15:28N 49°09' W 123°00'0 0.0
2018-May-09 14:58N 49°09' W 123°00'0 0.0
2018-May-09 14:28N 49°09' W 123°00'0 0.0
2018-May-09 13:59N 49°09' W 123°00'0 0.0
2018-May-09 13:29N 49°09' W 123°00'0 0.0
2018-May-09 12:59N 49°09' W 123°00'0 0.2
2018-May-09 12:30N 49°09' W 123°00'0 0.2
2018-May-09 12:00N 49°09' W 123°00'0 0.0
2018-May-09 11:30N 49°09' W 123°00'0 0.0
2018-May-09 10:58N 49°09' W 123°00'0 0.0
2018-May-09 10:28N 49°09' W 123°00'0 0.0
2018-May-09 09:58N 49°09' W 123°00'0 0.0
2018-May-09 09:29N 49°09' W 123°00'0 0.0
2018-May-09 08:59N 49°09' W 123°00'0 0.4
2018-May-09 08:29N 49°09' W 123°00'0 0.4
2018-May-09 08:00N 49°09' W 123°00'0 0.0
2018-May-09 07:30N 49°09' W 123°00'0 0.0
2018-May-09 07:00N 49°09' W 123°00'0 0.0
2018-May-09 06:28N 49°09' W 123°00'0 0.0
2018-May-09 05:58N 49°09' W 123°00'0 0.0
2018-May-09 05:28N 49°09' W 123°00'0 0.0
2018-May-09 04:59N 49°09' W 123°00'0 0.0
2018-May-09 04:29N 49°09' W 123°00'0 0.0
2018-May-09 03:59N 49°09' W 123°00'0 0.0
2018-May-09 03:30N 49°09' W 123°00'0 0.0
2018-May-09 03:00N 49°09' W 123°00'0 0.0
2018-May-09 02:30N 49°09' W 123°00'0 0.0
2018-May-09 01:58N 49°09' W 123°00'0 0.0
2018-May-09 01:28N 49°09' W 123°00'0 0.0
2018-May-09 00:58N 49°09' W 123°00'0 0.0
2018-May-09 00:29N 49°09' W 123°00'0 0.0
2018-May-08 23:59N 49°09' W 123°00'0 0.0
2018-May-08 23:29N 49°09' W 123°00'0 0.0
2018-May-08 23:00N 49°09' W 123°00'0 0.0
2018-May-08 22:30N 49°09' W 123°00'0 0.0
2018-May-08 22:00N 49°09' W 123°00'0 0.0
2018-May-08 21:28N 49°09' W 123°00'0 0.0
2018-May-08 20:58N 49°09' W 123°00'0 0.0
2018-May-08 20:28N 49°09' W 123°00'0 0.0
2018-May-08 19:59N 49°09' W 123°00'0 0.0
2018-May-08 19:29N 49°09' W 123°00'0 0.0
2018-May-08 18:59N 49°09' W 123°00'0 0.0
2018-May-08 18:30N 49°09' W 123°00'0 0.0
2018-May-08 18:00N 49°09' W 123°00'0 0.0
2018-May-08 17:30N 49°09' W 123°00'0 0.0
2018-May-08 16:58N 49°09' W 123°00'0 0.0
2018-May-08 16:28N 49°09' W 123°00'0 0.0
2018-May-08 15:58N 49°09' W 123°00'0 0.0
2018-May-08 15:29N 49°09' W 123°00'0 0.0
2018-May-08 14:59N 49°09' W 123°00'0 0.0
2018-May-08 14:29N 49°09' W 123°00'0 0.0
2018-May-08 14:00N 49°09' W 123°00'0 0.0
2018-May-08 13:30N 49°09' W 123°00'0 0.0
2018-May-08 13:00N 49°09' W 123°00'0 0.0
2018-May-08 12:31N 49°09' W 123°00'0 0.0
2018-May-08 11:58N 49°09' W 123°00'0 0.0
2018-May-08 11:28N 49°09' W 123°00'0 0.0
2018-May-08 10:59N 49°09' W 123°00'0 0.0
2018-May-08 10:29N 49°09' W 123°00'0 0.0
2018-May-08 09:59N 49°09' W 123°00'0 0.0
2018-May-08 09:30N 49°09' W 123°00'0 0.0
2018-May-08 09:00N 49°09' W 123°00'0 0.0
2018-May-08 08:30N 49°09' W 123°00'0 0.0
2018-May-08 08:01N 49°09' W 123°00'0 0.0
2018-May-08 07:28N 49°09' W 123°00'0 0.0
2018-May-08 06:58N 49°09' W 123°00'0 0.0
2018-May-08 06:29N 49°09' W 123°00'0 0.0
2018-May-08 05:59N 49°09' W 123°00'0 0.0
2018-May-08 05:29N 49°09' W 123°00'0 0.0
2018-May-08 05:00N 49°09' W 123°00'0 0.0
2018-May-08 04:30N 49°09' W 123°00'0 0.0
2018-May-08 04:00N 49°09' W 123°00'0 0.0
2018-May-08 03:28N 49°09' W 123°00'0 0.0
2018-May-08 02:58N 49°09' W 123°00'0 0.0
2018-May-08 02:28N 49°09' W 123°00'0 0.0
2018-May-08 01:59N 49°09' W 123°00'0 0.0
2018-May-08 01:29N 49°09' W 123°00'0 0.0
2018-May-08 00:59N 49°09' W 123°00'0 0.0
2018-May-08 00:30N 49°09' W 123°00'0 0.0
2018-May-08 00:00N 49°09' W 123°00'0 0.0
2018-May-07 23:30N 49°09' W 123°00'0 0.0
2018-May-07 22:58N 49°09' W 123°00'0 0.0
2018-May-07 22:28N 49°09' W 123°00'0 0.0
2018-May-07 21:58N 49°09' W 123°00'0 0.0
2018-May-07 21:29N 49°09' W 123°00'0 0.0
2018-May-07 20:59N 49°09' W 123°00'0 0.0
2018-May-07 20:29N 49°09' W 123°00'0 0.0
2018-May-07 19:57N 49°09' W 123°00'0 0.0
2018-May-07 19:30N 49°09' W 123°00'0 0.0
2018-May-07 19:00N 49°09' W 123°00'0 0.0
2018-May-07 18:31N 49°09' W 123°00'0 0.0
2018-May-07 17:58N 49°09' W 123°00'0 0.0
2018-May-07 17:28N 49°09' W 123°00'0 0.0
2018-May-07 16:59N 49°09' W 123°00'0 0.0
2018-May-07 16:29N 49°09' W 123°00'0 0.0
2018-May-07 15:59N 49°09' W 123°00'0 0.0
2018-May-07 15:30N 49°09' W 123°00'0 0.0
2018-May-07 15:00N 49°09' W 123°00'0 0.0
2018-May-07 14:30N 49°09' W 123°00'0 0.0
2018-May-07 13:58N 49°09' W 123°00'0 0.0
2018-May-07 13:28N 49°09' W 123°00'0 0.0
2018-May-07 12:58N 49°09' W 123°00'0 0.0
2018-May-07 12:29N 49°09' W 123°00'0 0.0
2018-May-07 11:59N 49°09' W 123°00'0 0.0
2018-May-07 11:29N 49°09' W 123°00'0 0.1
2018-May-07 11:00N 49°09' W 123°00'0 0.8
2018-May-07 10:30N 49°09' W 123°01'2 4.7
2018-May-07 10:00N 49°08' W 123°04'2 4.8
2018-May-07 09:30N 49°07' W 123°07'3 5.4
2018-May-07 08:56N 49°07' W 123°12'2 4.7
2018-May-07 08:30N 49°08' W 123°15'3 5.7
2018-May-07 08:00N 49°06' W 123°18'2 4.2
2018-May-07 07:24N 49°04' W 123°18'13 6.1
2018-May-07 05:19N 48°55' W 123°04'3 6.3
2018-May-07 04:55N 48°53' W 123°01'5 6.6
2018-May-07 04:12N 48°50' W 122°56'5 6.4
2018-May-07 03:30N 48°47' W 122°51'3 6.0
2018-May-07 02:58N 48°46' W 122°46'3 6.4
2018-May-07 02:30N 48°43' W 122°44'3 6.2
2018-May-07 02:00N 48°40' W 122°42'3 6.5
2018-May-07 01:30N 48°37' W 122°44'4 7.4
2018-May-07 01:00N 48°34' W 122°45'4 7.5
2018-May-07 00:30N 48°30' W 122°44'4 7.4
2018-May-07 00:00N 48°26' W 122°44'3 6.6
2018-May-06 23:29N 48°23' W 122°44'24 7.8
2018-May-06 20:29N 47°60' W 122°36'510.5
2018-May-06 20:00N 47°56' W 122°31'5 9.6
2018-May-06 19:30N 47°52' W 122°28'5 9.2
2018-May-06 19:00N 47°47' W 122°26'4 9.0
2018-May-06 18:30N 47°43' W 122°26'4 8.5
2018-May-06 18:00N 47°39' W 122°26'4 8.8
2018-May-06 17:30N 47°36' W 122°22'1 1.6
2018-May-06 17:00N 47°35' W 122°21'0 0.0
2018-May-06 16:30N 47°35' W 122°21'2 3.9
2018-May-06 16:00N 47°33' W 122°21'0 0.0
2018-May-06 15:30N 47°33' W 122°21'0 0.0
2018-May-06 14:58N 47°33' W 122°21'0 0.0
2018-May-06 14:30N 47°33' W 122°21'  
2018-May-03 20:48N 47°33' W 122°21'0 0.0
2018-May-03 20:28N 47°33' W 122°21'1 2.7
2018-May-03 20:00N 47°34' W 122°22'0 0.0
2018-May-03 19:30N 47°34' W 122°22'1 1.5
2018-May-03 18:41N 47°33' W 122°21'0 0.0
2018-May-03 18:30N 47°33' W 122°21'0 0.2
2018-May-03 18:00N 47°33' W 122°21'1 2.1
2018-May-03 17:30N 47°34' W 122°21'1 3.0
2018-May-03 17:00N 47°36' W 122°22'2 3.2
2018-May-03 16:29N 47°37' W 122°24'2 4.1
2018-May-03 16:00N 47°38' W 122°26'2 4.8
2018-May-03 15:30N 47°40' W 122°29'3 5.4
2018-May-03 15:00N 47°42' W 122°28'3 5.6
2018-May-03 14:30N 47°45' W 122°27'3 5.5
2018-May-03 14:00N 47°48' W 122°28'3 5.4
2018-May-03 13:30N 47°50' W 122°29'3 5.3
2018-May-03 13:00N 47°53' W 122°30'3 5.5
2018-May-03 12:30N 47°56' W 122°31'4 6.8
2018-May-03 11:59N 47°58' W 122°35'22 5.7
2018-May-03 08:14N 48°17' W 122°48'2 6.6
2018-May-03 07:58N 48°19' W 122°47'3 7.5
2018-May-03 07:30N 48°22' W 122°46'4 8.4
2018-May-03 06:59N 48°27' W 122°45'4 8.5
2018-May-03 06:30N 48°31' W 122°45'4 8.8
2018-May-03 06:00N 48°35' W 122°45'4 7.2
2018-May-03 05:30N 48°39' W 122°44'4 7.4
2018-May-03 05:00N 48°42' W 122°45'4 7.7
2018-May-03 04:30N 48°45' W 122°49'12 7.5
2018-May-03 02:55N 48°52' W 123°04'5 7.7
2018-May-03 02:16N 48°55' W 123°09'2 7.6
2018-May-03 01:57N 48°57' W 123°12'4 7.1
2018-May-03 01:24N 48°60' W 123°17'3 6.5
2018-May-03 01:00N 49°02' W 123°19'4 6.2
2018-May-03 00:24N 49°05' W 123°20'2 5.1
2018-May-03 00:00N 49°06' W 123°18'3 6.3
2018-May-02 23:30N 49°08' W 123°13'4 7.6
2018-May-02 23:00N 49°07' W 123°08'4 8.1
2018-May-02 22:30N 49°09' W 123°03'2 3.2
2018-May-02 21:59N 49°09' W 123°00'0 0.1
2018-May-02 21:29N 49°09' W 123°00'0 0.0
2018-May-02 21:00N 49°09' W 123°00'0 0.0
2018-May-02 20:30N 49°09' W 123°00'0 0.0
2018-May-02 20:00N 49°09' W 123°00'0 0.0
2018-May-02 19:28N 49°09' W 123°00'0 0.0
2018-May-02 18:58N 49°09' W 123°00'0 0.0
2018-May-02 18:28N 49°09' W 123°00'0 0.0
2018-May-02 17:59N 49°09' W 123°00'0 0.0
2018-May-02 17:29N 49°09' W 123°00'0 0.0
2018-May-02 16:59N 49°09' W 123°00'0 0.0
2018-May-02 16:30N 49°09' W 123°00'0 0.0
2018-May-02 16:00N 49°09' W 123°00'0 0.0
2018-May-02 15:30N 49°09' W 123°00'0 0.0
2018-May-02 14:58N 49°09' W 123°00'0 0.0
2018-May-02 14:28N 49°09' W 123°00'0 0.0
2018-May-02 13:58N 49°09' W 123°00'0 0.0
2018-May-02 13:29N 49°09' W 123°00'0 0.0
2018-May-02 12:59N 49°09' W 123°00'0 0.0
2018-May-02 12:29N 49°09' W 123°00'0 0.0
2018-May-02 12:00N 49°09' W 123°00'0 0.0
2018-May-02 11:30N 49°09' W 123°00'0 0.0
2018-May-02 11:00N 49°09' W 123°00'0 0.0
2018-May-02 10:28N 49°09' W 123°00'0 0.0
2018-May-02 09:58N 49°09' W 123°00'0 0.0
2018-May-02 09:28N 49°09' W 123°00'0 0.0
2018-May-02 08:59N 49°09' W 123°00'0 0.0
2018-May-02 08:29N 49°09' W 123°00'0 0.0
2018-May-02 07:59N 49°09' W 123°00'0 0.0
2018-May-02 07:30N 49°09' W 123°00'0 0.0
2018-May-02 07:00N 49°09' W 123°00'0 0.0
2018-May-02 06:30N 49°09' W 123°00'0 0.0
2018-May-02 05:58N 49°09' W 123°00'0 0.0
2018-May-02 05:28N 49°09' W 123°00'0 0.0
2018-May-02 04:58N 49°09' W 123°00'0 0.0
2018-May-02 04:29N 49°09' W 123°00'0 0.0
2018-May-02 03:59N 49°09' W 123°00'0 0.0
2018-May-02 03:29N 49°09' W 123°00'0 0.0
2018-May-02 03:00N 49°09' W 123°00'0 0.0
2018-May-02 02:30N 49°09' W 123°00'0 0.0
2018-May-02 02:00N 49°09' W 123°00'0 0.0
2018-May-02 01:28N 49°09' W 123°00'0 0.0
2018-May-02 00:58N 49°09' W 123°00'0 0.0
2018-May-02 00:28N 49°09' W 123°00'0 0.0
2018-May-01 23:59N 49°09' W 123°00'0 0.0
2018-May-01 23:29N 49°09' W 123°00'0 0.0
2018-May-01 22:59N 49°09' W 123°00'0 0.0
2018-May-01 22:30N 49°09' W 123°00'0 0.0
2018-May-01 22:00N 49°09' W 123°00'0 0.0
2018-May-01 21:30N 49°09' W 123°00'0 0.0
2018-May-01 21:00N 49°09' W 123°00'0 0.0
2018-May-01 20:28N 49°09' W 123°00'0 0.0
2018-May-01 19:58N 49°09' W 123°00'0 0.0
2018-May-01 19:29N 49°09' W 123°00'0 0.0
2018-May-01 18:59N 49°09' W 123°00'0 0.0
2018-May-01 18:29N 49°09' W 123°00'0 0.0
2018-May-01 17:59N 49°09' W 123°00'0 0.0
2018-May-01 17:30N 49°09' W 123°00'0 0.0
2018-May-01 17:00N 49°09' W 123°00'0 0.0
2018-May-01 16:30N 49°09' W 123°00'0 0.0
2018-May-01 15:58N 49°09' W 123°00'0 0.0
2018-May-01 15:28N 49°09' W 123°00'0 0.0
2018-May-01 14:58N 49°09' W 123°00'0 0.0
2018-May-01 14:29N 49°09' W 123°00'0 0.0
2018-May-01 13:59N 49°09' W 123°00'0 0.0
2018-May-01 13:29N 49°09' W 123°00'0 0.0
2018-May-01 13:00N 49°09' W 123°00'0 0.0
2018-May-01 12:30N 49°09' W 123°00'0 0.0
2018-May-01 12:00N 49°09' W 123°00'0 0.0
2018-May-01 11:28N 49°09' W 123°00'0 0.0
2018-May-01 10:58N 49°09' W 123°00'0 0.0
2018-May-01 10:28N 49°09' W 123°00'0 0.0
2018-May-01 09:59N 49°09' W 123°00'0 0.0
2018-May-01 09:29N 49°09' W 123°00'0 0.0
2018-May-01 08:59N 49°09' W 123°00'0 0.0
2018-May-01 08:30N 49°09' W 123°00'0 0.0
2018-May-01 08:00N 49°09' W 123°00'0 0.0
2018-May-01 07:30N 49°09' W 123°00'0 0.1
2018-May-01 06:58N 49°09' W 123°00'0 0.0
2018-May-01 06:28N 49°09' W 123°00'0 0.0
2018-May-01 05:58N 49°09' W 123°00'0 0.0
2018-May-01 05:29N 49°09' W 123°00'0 0.0
2018-May-01 04:59N 49°09' W 123°00'0 0.0
2018-May-01 04:29N 49°09' W 123°00'0 0.0
2018-May-01 04:00N 49°09' W 123°00'0 0.0
2018-May-01 03:30N 49°09' W 123°00'0 0.0
2018-May-01 03:00N 49°09' W 123°00'0 0.0
2018-May-01 02:28N 49°09' W 123°00'0 0.0
2018-May-01 01:58N 49°09' W 123°00'0 0.0
2018-May-01 01:28N 49°09' W 123°00'0 0.0
2018-May-01 00:59N 49°09' W 123°00'  
Track history (hours):
 
Tides and Currents Weather Stations Pressure Air Temp Water Temp Dewpoint Dewpoint Depression Visibility Wind Speed Wind Dir Waves Ship Positions

Mauna Loa

Owner: Salmon Bay Barge Line, Inc., Seattle, WA. More information available from US FCC via Universal Licensing System and Coast Guard Vessel Documentation Center.

Last reported at 2018-May-11 00:50 UTC. Time now 2018-Jun-19 10:22 UTC.
Position N 47°34' W 122°22'.
Warning: this ship's position is 39 days out of date.

Length 37 m; draft 4.6 m.

Type: Tug. MMSI: 366998090.

Date/timePositionNaut miles runAvg speedWind from/ knotsBaromVisibWave heightAir tempDewpointWater temp
2018-May-11 00:50N 47°34' W 122°22'0 0.3
2018-May-11 00:30N 47°35' W 122°22'3 7.0
2018-May-11 00:00N 47°37' W 122°25'2 3.3
2018-May-10 23:29N 47°38' W 122°27'1 2.6
2018-May-10 22:59N 47°39' W 122°28'2 2.4
2018-May-10 22:17N 47°41' W 122°28'1 2.3
2018-May-10 22:00N 47°42' W 122°28'0 0.4
2018-May-10 21:27N 47°42' W 122°28'0 0.2
2018-May-10 21:00N 47°42' W 122°28'0 0.1
2018-May-10 20:28N 47°42' W 122°28'0 0.6
2018-May-10 19:52N 47°42' W 122°28'2 5.1
2018-May-10 19:30N 47°44' W 122°28'3 6.9
2018-May-10 19:00N 47°47' W 122°28'3 6.9
2018-May-10 18:30N 47°51' W 122°29'3 6.8
2018-May-10 18:00N 47°54' W 122°30'26 5.4
2018-May-10 13:05N 48°17' W 122°48'2 7.2
2018-May-10 12:52N 48°19' W 122°47'3 7.1
2018-May-10 12:30N 48°21' W 122°46'5 7.4
2018-May-10 11:53N 48°26' W 122°45'3 7.7
2018-May-10 11:27N 48°29' W 122°45'3 7.2
2018-May-10 11:00N 48°32' W 122°45'3 6.7
2018-May-10 10:30N 48°36' W 122°46'3 6.2
2018-May-10 10:00N 48°39' W 122°44'3 5.8
2018-May-10 09:28N 48°42' W 122°45'4 6.0
2018-May-10 08:51N 48°45' W 122°48'2 6.1
2018-May-10 08:29N 48°46' W 122°51'4 6.5
2018-May-10 07:56N 48°48' W 122°55'4 5.7
2018-May-10 07:09N 48°50' W 123°01'4 6.2
2018-May-10 06:31N 48°53' W 123°06'2 6.6
2018-May-10 06:16N 48°54' W 123°07'2 6.7
2018-May-10 05:59N 48°55' W 123°10'4 6.7
2018-May-10 05:24N 48°58' W 123°14'3 6.8
2018-May-10 04:59N 48°60' W 123°17'4 6.5
2018-May-10 04:25N 49°03' W 123°21'2 5.6
2018-May-10 04:00N 49°05' W 123°20'4 7.6
2018-May-10 03:28N 49°07' W 123°15'3 7.6
2018-May-10 03:00N 49°07' W 123°10'4 8.2
2018-May-10 02:30N 49°08' W 123°04'3 5.5
2018-May-10 02:00N 49°09' W 123°00'0 0.0
2018-May-10 01:30N 49°09' W 123°00'0 0.0
2018-May-10 01:00N 49°09' W 123°00'0 0.0
2018-May-10 00:28N 49°09' W 123°00'0 0.0
2018-May-09 23:58N 49°09' W 123°00'0 0.0
2018-May-09 23:28N 49°09' W 123°00'0 0.0
2018-May-09 22:59N 49°09' W 123°00'0 0.0
2018-May-09 22:29N 49°09' W 123°00'0 0.0
2018-May-09 21:59N 49°09' W 123°00'0 0.0
2018-May-09 21:30N 49°09' W 123°00'0 0.0
2018-May-09 21:00N 49°09' W 123°00'0 0.0
2018-May-09 20:30N 49°09' W 123°00'0 0.0
2018-May-09 19:58N 49°09' W 123°00'0 0.0
2018-May-09 19:28N 49°09' W 123°00'0 0.0
2018-May-09 18:58N 49°09' W 123°00'0 0.0
2018-May-09 18:29N 49°09' W 123°00'0 0.0
2018-May-09 17:59N 49°09' W 123°00'0 0.0
2018-May-09 17:29N 49°09' W 123°00'0 0.0
2018-May-09 17:00N 49°09' W 123°00'0 0.0
2018-May-09 16:30N 49°09' W 123°00'0 0.0
2018-May-09 16:00N 49°09' W 123°00'0 0.0
2018-May-09 15:28N 49°09' W 123°00'0 0.0
2018-May-09 14:58N 49°09' W 123°00'0 0.0
2018-May-09 14:28N 49°09' W 123°00'0 0.0
2018-May-09 13:59N 49°09' W 123°00'0 0.0
2018-May-09 13:29N 49°09' W 123°00'0 0.0
2018-May-09 12:59N 49°09' W 123°00'0 0.2
2018-May-09 12:30N 49°09' W 123°00'0 0.2
2018-May-09 12:00N 49°09' W 123°00'0 0.0
2018-May-09 11:30N 49°09' W 123°00'0 0.0
2018-May-09 10:58N 49°09' W 123°00'0 0.0
2018-May-09 10:28N 49°09' W 123°00'0 0.0
2018-May-09 09:58N 49°09' W 123°00'0 0.0
2018-May-09 09:29N 49°09' W 123°00'0 0.0
2018-May-09 08:59N 49°09' W 123°00'0 0.4
2018-May-09 08:29N 49°09' W 123°00'0 0.4
2018-May-09 08:00N 49°09' W 123°00'0 0.0
2018-May-09 07:30N 49°09' W 123°00'0 0.0
2018-May-09 07:00N 49°09' W 123°00'0 0.0
2018-May-09 06:28N 49°09' W 123°00'0 0.0
2018-May-09 05:58N 49°09' W 123°00'0 0.0
2018-May-09 05:28N 49°09' W 123°00'0 0.0
2018-May-09 04:59N 49°09' W 123°00'0 0.0
2018-May-09 04:29N 49°09' W 123°00'0 0.0
2018-May-09 03:59N 49°09' W 123°00'0 0.0
2018-May-09 03:30N 49°09' W 123°00'0 0.0
2018-May-09 03:00N 49°09' W 123°00'0 0.0
2018-May-09 02:30N 49°09' W 123°00'0 0.0
2018-May-09 01:58N 49°09' W 123°00'0 0.0
2018-May-09 01:28N 49°09' W 123°00'0 0.0
2018-May-09 00:58N 49°09' W 123°00'0 0.0
2018-May-09 00:29N 49°09' W 123°00'0 0.0
2018-May-08 23:59N 49°09' W 123°00'0 0.0
2018-May-08 23:29N 49°09' W 123°00'0 0.0
2018-May-08 23:00N 49°09' W 123°00'0 0.0
2018-May-08 22:30N 49°09' W 123°00'0 0.0
2018-May-08 22:00N 49°09' W 123°00'0 0.0
2018-May-08 21:28N 49°09' W 123°00'0 0.0
2018-May-08 20:58N 49°09' W 123°00'0 0.0
2018-May-08 20:28N 49°09' W 123°00'0 0.0
2018-May-08 19:59N 49°09' W 123°00'0 0.0
2018-May-08 19:29N 49°09' W 123°00'0 0.0
2018-May-08 18:59N 49°09' W 123°00'0 0.0
2018-May-08 18:30N 49°09' W 123°00'0 0.0
2018-May-08 18:00N 49°09' W 123°00'0 0.0
2018-May-08 17:30N 49°09' W 123°00'0 0.0
2018-May-08 16:58N 49°09' W 123°00'0 0.0
2018-May-08 16:28N 49°09' W 123°00'0 0.0
2018-May-08 15:58N 49°09' W 123°00'0 0.0
2018-May-08 15:29N 49°09' W 123°00'0 0.0
2018-May-08 14:59N 49°09' W 123°00'0 0.0
2018-May-08 14:29N 49°09' W 123°00'0 0.0
2018-May-08 14:00N 49°09' W 123°00'0 0.0
2018-May-08 13:30N 49°09' W 123°00'0 0.0
2018-May-08 13:00N 49°09' W 123°00'0 0.0
2018-May-08 12:31N 49°09' W 123°00'0 0.0
2018-May-08 11:58N 49°09' W 123°00'0 0.0
2018-May-08 11:28N 49°09' W 123°00'0 0.0
2018-May-08 10:59N 49°09' W 123°00'0 0.0
2018-May-08 10:29N 49°09' W 123°00'0 0.0
2018-May-08 09:59N 49°09' W 123°00'0 0.0
2018-May-08 09:30N 49°09' W 123°00'0 0.0
2018-May-08 09:00N 49°09' W 123°00'0 0.0
2018-May-08 08:30N 49°09' W 123°00'0 0.0
2018-May-08 08:01N 49°09' W 123°00'0 0.0
2018-May-08 07:28N 49°09' W 123°00'0 0.0
2018-May-08 06:58N 49°09' W 123°00'0 0.0
2018-May-08 06:29N 49°09' W 123°00'0 0.0
2018-May-08 05:59N 49°09' W 123°00'0 0.0
2018-May-08 05:29N 49°09' W 123°00'0 0.0
2018-May-08 05:00N 49°09' W 123°00'0 0.0
2018-May-08 04:30N 49°09' W 123°00'0 0.0
2018-May-08 04:00N 49°09' W 123°00'0 0.0
2018-May-08 03:28N 49°09' W 123°00'0 0.0
2018-May-08 02:58N 49°09' W 123°00'0 0.0
2018-May-08 02:28N 49°09' W 123°00'0 0.0
2018-May-08 01:59N 49°09' W 123°00'0 0.0
2018-May-08 01:29N 49°09' W 123°00'0 0.0
2018-May-08 00:59N 49°09' W 123°00'0 0.0
2018-May-08 00:30N 49°09' W 123°00'0 0.0
2018-May-08 00:00N 49°09' W 123°00'0 0.0
2018-May-07 23:30N 49°09' W 123°00'0 0.0
2018-May-07 22:58N 49°09' W 123°00'0 0.0
2018-May-07 22:28N 49°09' W 123°00'0 0.0
2018-May-07 21:58N 49°09' W 123°00'0 0.0
2018-May-07 21:29N 49°09' W 123°00'0 0.0
2018-May-07 20:59N 49°09' W 123°00'0 0.0
2018-May-07 20:29N 49°09' W 123°00'0 0.0
2018-May-07 19:57N 49°09' W 123°00'0 0.0
2018-May-07 19:30N 49°09' W 123°00'0 0.0
2018-May-07 19:00N 49°09' W 123°00'0 0.0
2018-May-07 18:31N 49°09' W 123°00'0 0.0
2018-May-07 17:58N 49°09' W 123°00'0 0.0
2018-May-07 17:28N 49°09' W 123°00'0 0.0
2018-May-07 16:59N 49°09' W 123°00'0 0.0
2018-May-07 16:29N 49°09' W 123°00'0 0.0
2018-May-07 15:59N 49°09' W 123°00'0 0.0
2018-May-07 15:30N 49°09' W 123°00'0 0.0
2018-May-07 15:00N 49°09' W 123°00'0 0.0
2018-May-07 14:30N 49°09' W 123°00'0 0.0
2018-May-07 13:58N 49°09' W 123°00'0 0.0
2018-May-07 13:28N 49°09' W 123°00'0 0.0
2018-May-07 12:58N 49°09' W 123°00'0 0.0
2018-May-07 12:29N 49°09' W 123°00'0 0.0
2018-May-07 11:59N 49°09' W 123°00'0 0.0
2018-May-07 11:29N 49°09' W 123°00'0 0.1
2018-May-07 11:00N 49°09' W 123°00'0 0.8
2018-May-07 10:30N 49°09' W 123°01'2 4.7
2018-May-07 10:00N 49°08' W 123°04'2 4.8
2018-May-07 09:30N 49°07' W 123°07'3 5.4
2018-May-07 08:56N 49°07' W 123°12'2 4.7
2018-May-07 08:30N 49°08' W 123°15'3 5.7
2018-May-07 08:00N 49°06' W 123°18'2 4.2
2018-May-07 07:24N 49°04' W 123°18'13 6.1
2018-May-07 05:19N 48°55' W 123°04'3 6.3
2018-May-07 04:55N 48°53' W 123°01'5 6.6
2018-May-07 04:12N 48°50' W 122°56'5 6.4
2018-May-07 03:30N 48°47' W 122°51'3 6.0
2018-May-07 02:58N 48°46' W 122°46'3 6.4
2018-May-07 02:30N 48°43' W 122°44'3 6.2
2018-May-07 02:00N 48°40' W 122°42'3 6.5
2018-May-07 01:30N 48°37' W 122°44'4 7.4
2018-May-07 01:00N 48°34' W 122°45'4 7.5
2018-May-07 00:30N 48°30' W 122°44'4 7.4
2018-May-07 00:00N 48°26' W 122°44'3 6.6
2018-May-06 23:29N 48°23' W 122°44'24 7.8
2018-May-06 20:29N 47°60' W 122°36'510.5
2018-May-06 20:00N 47°56' W 122°31'5 9.6
2018-May-06 19:30N 47°52' W 122°28'5 9.2
2018-May-06 19:00N 47°47' W 122°26'4 9.0
2018-May-06 18:30N 47°43' W 122°26'4 8.5
2018-May-06 18:00N 47°39' W 122°26'4 8.8
2018-May-06 17:30N 47°36' W 122°22'1 1.6
2018-May-06 17:00N 47°35' W 122°21'0 0.0
2018-May-06 16:30N 47°35' W 122°21'2 3.9
2018-May-06 16:00N 47°33' W 122°21'0 0.0
2018-May-06 15:30N 47°33' W 122°21'0 0.0
2018-May-06 14:58N 47°33' W 122°21'0 0.0
2018-May-06 14:30N 47°33' W 122°21'  
2018-May-03 20:48N 47°33' W 122°21'0 0.0
2018-May-03 20:28N 47°33' W 122°21'1 2.7
2018-May-03 20:00N 47°34' W 122°22'0 0.0
2018-May-03 19:30N 47°34' W 122°22'1 1.5
2018-May-03 18:41N 47°33' W 122°21'0 0.0
2018-May-03 18:30N 47°33' W 122°21'0 0.2
2018-May-03 18:00N 47°33' W 122°21'1 2.1
2018-May-03 17:30N 47°34' W 122°21'1 3.0
2018-May-03 17:00N 47°36' W 122°22'2 3.2
2018-May-03 16:29N 47°37' W 122°24'2 4.1
2018-May-03 16:00N 47°38' W 122°26'2 4.8
2018-May-03 15:30N 47°40' W 122°29'3 5.4
2018-May-03 15:00N 47°42' W 122°28'3 5.6
2018-May-03 14:30N 47°45' W 122°27'3 5.5
2018-May-03 14:00N 47°48' W 122°28'3 5.4
2018-May-03 13:30N 47°50' W 122°29'3 5.3
2018-May-03 13:00N 47°53' W 122°30'3 5.5
2018-May-03 12:30N 47°56' W 122°31'4 6.8
2018-May-03 11:59N 47°58' W 122°35'22 5.7
2018-May-03 08:14N 48°17' W 122°48'2 6.6
2018-May-03 07:58N 48°19' W 122°47'3 7.5
2018-May-03 07:30N 48°22' W 122°46'4 8.4
2018-May-03 06:59N 48°27' W 122°45'4 8.5
2018-May-03 06:30N 48°31' W 122°45'4 8.8
2018-May-03 06:00N 48°35' W 122°45'4 7.2
2018-May-03 05:30N 48°39' W 122°44'4 7.4
2018-May-03 05:00N 48°42' W 122°45'4 7.7
2018-May-03 04:30N 48°45' W 122°49'12 7.5
2018-May-03 02:55N 48°52' W 123°04'5 7.7
2018-May-03 02:16N 48°55' W 123°09'2 7.6
2018-May-03 01:57N 48°57' W 123°12'4 7.1
2018-May-03 01:24N 48°60' W 123°17'3 6.5
2018-May-03 01:00N 49°02' W 123°19'4 6.2
2018-May-03 00:24N 49°05' W 123°20'2 5.1
2018-May-03 00:00N 49°06' W 123°18'3 6.3
2018-May-02 23:30N 49°08' W 123°13'4 7.6
2018-May-02 23:00N 49°07' W 123°08'4 8.1
2018-May-02 22:30N 49°09' W 123°03'2 3.2
2018-May-02 21:59N 49°09' W 123°00'0 0.1
2018-May-02 21:29N 49°09' W 123°00'0 0.0
2018-May-02 21:00N 49°09' W 123°00'0 0.0
2018-May-02 20:30N 49°09' W 123°00'0 0.0
2018-May-02 20:00N 49°09' W 123°00'0 0.0
2018-May-02 19:28N 49°09' W 123°00'0 0.0
2018-May-02 18:58N 49°09' W 123°00'0 0.0
2018-May-02 18:28N 49°09' W 123°00'0 0.0
2018-May-02 17:59N 49°09' W 123°00'0 0.0
2018-May-02 17:29N 49°09' W 123°00'0 0.0
2018-May-02 16:59N 49°09' W 123°00'0 0.0
2018-May-02 16:30N 49°09' W 123°00'0 0.0
2018-May-02 16:00N 49°09' W 123°00'0 0.0
2018-May-02 15:30N 49°09' W 123°00'0 0.0
2018-May-02 14:58N 49°09' W 123°00'0 0.0
2018-May-02 14:28N 49°09' W 123°00'0 0.0
2018-May-02 13:58N 49°09' W 123°00'0 0.0
2018-May-02 13:29N 49°09' W 123°00'0 0.0
2018-May-02 12:59N 49°09' W 123°00'0 0.0
2018-May-02 12:29N 49°09' W 123°00'0 0.0
2018-May-02 12:00N 49°09' W 123°00'0 0.0
2018-May-02 11:30N 49°09' W 123°00'0 0.0
2018-May-02 11:00N 49°09' W 123°00'0 0.0
2018-May-02 10:28N 49°09' W 123°00'0 0.0
2018-May-02 09:58N 49°09' W 123°00'0 0.0
2018-May-02 09:28N 49°09' W 123°00'0 0.0
2018-May-02 08:59N 49°09' W 123°00'0 0.0
2018-May-02 08:29N 49°09' W 123°00'0 0.0
2018-May-02 07:59N 49°09' W 123°00'0 0.0
2018-May-02 07:30N 49°09' W 123°00'0 0.0
2018-May-02 07:00N 49°09' W 123°00'0 0.0
2018-May-02 06:30N 49°09' W 123°00'0 0.0
2018-May-02 05:58N 49°09' W 123°00'0 0.0
2018-May-02 05:28N 49°09' W 123°00'0 0.0
2018-May-02 04:58N 49°09' W 123°00'0 0.0
2018-May-02 04:29N 49°09' W 123°00'0 0.0
2018-May-02 03:59N 49°09' W 123°00'0 0.0
2018-May-02 03:29N 49°09' W 123°00'0 0.0
2018-May-02 03:00N 49°09' W 123°00'0 0.0
2018-May-02 02:30N 49°09' W 123°00'0 0.0
2018-May-02 02:00N 49°09' W 123°00'0 0.0
2018-May-02 01:28N 49°09' W 123°00'0 0.0
2018-May-02 00:58N 49°09' W 123°00'0 0.0
2018-May-02 00:28N 49°09' W 123°00'0 0.0
2018-May-01 23:59N 49°09' W 123°00'0 0.0
2018-May-01 23:29N 49°09' W 123°00'0 0.0
2018-May-01 22:59N 49°09' W 123°00'0 0.0
2018-May-01 22:30N 49°09' W 123°00'0 0.0
2018-May-01 22:00N 49°09' W 123°00'0 0.0
2018-May-01 21:30N 49°09' W 123°00'0 0.0
2018-May-01 21:00N 49°09' W 123°00'0 0.0
2018-May-01 20:28N 49°09' W 123°00'0 0.0
2018-May-01 19:58N 49°09' W 123°00'0 0.0
2018-May-01 19:29N 49°09' W 123°00'0 0.0
2018-May-01 18:59N 49°09' W 123°00'0 0.0
2018-May-01 18:29N 49°09' W 123°00'0 0.0
2018-May-01 17:59N 49°09' W 123°00'0 0.0
2018-May-01 17:30N 49°09' W 123°00'0 0.0
2018-May-01 17:00N 49°09' W 123°00'0 0.0
2018-May-01 16:30N 49°09' W 123°00'0 0.0
2018-May-01 15:58N 49°09' W 123°00'0 0.0
2018-May-01 15:28N 49°09' W 123°00'0 0.0
2018-May-01 14:58N 49°09' W 123°00'0 0.0
2018-May-01 14:29N 49°09' W 123°00'0 0.0
2018-May-01 13:59N 49°09' W 123°00'0 0.0
2018-May-01 13:29N 49°09' W 123°00'0 0.0
2018-May-01 13:00N 49°09' W 123°00'0 0.0
2018-May-01 12:30N 49°09' W 123°00'0 0.0
2018-May-01 12:00N 49°09' W 123°00'0 0.0
2018-May-01 11:28N 49°09' W 123°00'0 0.0
2018-May-01 10:58N 49°09' W 123°00'0 0.0
2018-May-01 10:28N 49°09' W 123°00'0 0.0
2018-May-01 09:59N 49°09' W 123°00'0 0.0
2018-May-01 09:29N 49°09' W 123°00'0 0.0
2018-May-01 08:59N 49°09' W 123°00'0 0.0
2018-May-01 08:30N 49°09' W 123°00'0 0.0
2018-May-01 08:00N 49°09' W 123°00'0 0.0
2018-May-01 07:30N 49°09' W 123°00'0 0.1
2018-May-01 06:58N 49°09' W 123°00'0 0.0
2018-May-01 06:28N 49°09' W 123°00'0 0.0
2018-May-01 05:58N 49°09' W 123°00'0 0.0
2018-May-01 05:29N 49°09' W 123°00'0 0.0
2018-May-01 04:59N 49°09' W 123°00'0 0.0
2018-May-01 04:29N 49°09' W 123°00'0 0.0
2018-May-01 04:00N 49°09' W 123°00'0 0.0
2018-May-01 03:30N 49°09' W 123°00'0 0.0
2018-May-01 03:00N 49°09' W 123°00'0 0.0
2018-May-01 02:28N 49°09' W 123°00'0 0.0
2018-May-01 01:58N 49°09' W 123°00'0 0.0
2018-May-01 01:28N 49°09' W 123°00'0 0.0
2018-May-01 00:59N 49°09' W 123°00'  

Dump ship's entire track history